Time;durP1;ratioP1;P1;durP2;ratioP2;P2;SDS_P1;SDS_P2;PMS_P1;PMS_P2;Temp;Humidity;BMP_temperature;BMP_pressure;BME280_temperature;BME280_humidity;BME280_pressure;Samples;Min_cycle;Max_cycle;Signal;HPM_P1;HPM_P2
2021/12/11 00:00:37;;;;;;;0.70;0.40;;;21.60;90.20;;;;;;5003849;28;20035;-72
2021/12/11 00:03:08;;;;;;;0.80;0.50;;;21.70;89.90;;;;;;5001521;28;20121;-72
2021/12/11 00:05:37;;;;;;;1.13;0.50;;;21.70;87.90;;;;;;4996841;28;20546;-67
2021/12/11 00:08:05;;;;;;;2.20;0.90;;;21.70;90.00;;;;;;5002899;28;20027;-73
2021/12/11 00:10:41;;;;;;;0.38;0.30;;;21.80;90.20;;;;;;5002600;28;20045;-70
2021/12/11 00:13:13;;;;;;;1.42;0.50;;;21.80;89.10;;;;;;5000325;28;20029;-69
2021/12/11 00:15:44;;;;;;;3.20;0.70;;;21.70;89.70;;;;;;4997656;28;20048;-74
2021/12/11 00:18:16;;;;;;;0.90;0.57;;;21.90;90.20;;;;;;4998504;28;20551;-69
2021/12/11 00:20:55;;;;;;;3.63;0.80;;;21.80;88.40;;;;;;4999834;28;20034;-71
2021/12/11 00:23:49;;;;;;;2.28;0.90;;;22.00;88.40;;;;;;4998190;28;20091;-69
2021/12/11 00:26:25;;;;;;;0.95;0.52;;;22.20;86.50;;;;;;4992613;28;20561;-69
2021/12/11 00:28:52;;;;;;;2.15;0.93;;;22.30;86.60;;;;;;5000533;28;20083;-67
2021/12/11 00:31:20;;;;;;;5.32;0.98;;;22.20;87.10;;;;;;5001175;28;20483;-68
2021/12/11 00:33:49;;;;;;;1.75;0.68;;;22.40;89.00;;;;;;5003339;28;20026;-74
2021/12/11 00:36:21;;;;;;;1.60;0.77;;;22.60;85.90;;;;;;5002496;28;20030;-68
2021/12/11 00:38:50;;;;;;;2.83;0.60;;;22.70;84.00;;;;;;5002745;28;20465;-71
2021/12/11 00:41:22;;;;;;;2.05;0.60;;;22.80;85.30;;;;;;5002480;28;20116;-72
2021/12/11 00:43:50;;;;;;;3.15;0.90;;;22.60;84.00;;;;;;4996663;28;20038;-72
2021/12/11 00:46:24;;;;;;;2.03;0.70;;;22.40;85.40;;;;;;5000116;28;20553;-74
2021/12/11 00:48:51;;;;;;;2.03;0.60;;;22.60;86.30;;;;;;5001820;28;20034;-73
2021/12/11 00:51:22;;;;;;;3.08;0.95;;;22.80;85.00;;;;;;4998969;28;20026;-75
2021/12/11 00:53:55;;;;;;;1.45;0.75;;;23.20;85.60;;;;;;4999976;28;20033;-72
2021/12/11 00:56:33;;;;;;;1.95;0.65;;;23.30;80.30;;;;;;4993948;28;20034;-72
2021/12/11 00:59:08;;;;;;;2.35;0.57;;;23.20;81.60;;;;;;4995701;28;20145;-74
2021/12/11 01:02:03;;;;;;;2.72;0.70;;;23.00;84.20;;;;;;4999078;28;20041;-75
2021/12/11 01:04:41;;;;;;;2.47;0.65;;;22.80;83.10;;;;;;4998592;28;20038;-72
2021/12/11 01:07:20;;;;;;;3.22;0.80;;;22.80;82.60;;;;;;5003907;28;20018;-74
2021/12/11 01:10:01;;;;;;;1.65;0.57;;;22.70;83.50;;;;;;5004039;28;20117;-75
2021/12/11 01:12:40;;;;;;;1.55;0.43;;;22.80;83.20;;;;;;5002427;28;20759;-72
2021/12/11 01:15:31;;;;;;;2.00;0.80;;;22.80;81.60;;;;;;5003778;28;20405;-73
2021/12/11 01:21:03;;;;;;;2.67;0.47;;;22.90;83.60;;;;;;5004627;28;20026;-71
2021/12/11 01:26:08;;;;;;;2.63;0.88;;;23.20;82.50;;;;;;5003559;28;20030;-73
2021/12/11 01:28:37;;;;;;;4.15;0.95;;;23.40;82.10;;;;;;5002156;28;20026;-71
2021/12/11 01:31:07;;;;;;;2.10;0.63;;;23.40;80.20;;;;;;5001969;28;20049;-70
2021/12/11 01:33:34;;;;;;;2.33;0.70;;;23.50;78.20;;;;;;5000944;28;20056;-72
2021/12/11 01:36:03;;;;;;;1.00;0.45;;;23.70;82.30;;;;;;5002114;28;20498;-71
2021/12/11 01:38:31;;;;;;;1.25;0.65;;;23.70;77.60;;;;;;5000436;28;20034;-72
2021/12/11 01:41:03;;;;;;;2.60;0.75;;;23.40;80.20;;;;;;5002264;28;20064;-72
2021/12/11 01:43:34;;;;;;;1.53;0.60;;;23.10;81.90;;;;;;5002927;28;20021;-71
2021/12/11 01:46:03;;;;;;;1.65;0.82;;;22.70;82.00;;;;;;5001656;28;20295;-72
2021/12/11 01:48:34;;;;;;;1.40;0.77;;;22.50;85.40;;;;;;5001138;28;20047;-71
2021/12/11 01:51:06;;;;;;;2.83;0.60;;;22.40;85.70;;;;;;5000383;28;20026;-71
2021/12/11 01:53:45;;;;;;;1.85;0.80;;;22.30;85.90;;;;;;5001231;28;20034;-70
2021/12/11 01:56:23;;;;;;;1.67;0.50;;;22.30;86.40;;;;;;5005837;28;20037;-71
2021/12/11 01:59:16;;;;;;;1.20;0.77;;;22.40;84.20;;;;;;5005511;28;20022;-74
2021/12/11 02:02:05;;;;;;;1.75;0.55;;;22.10;85.60;;;;;;5004791;28;20025;-72
2021/12/11 02:04:37;;;;;;;1.63;0.40;;;22.20;86.90;;;;;;5004851;28;20022;-70
2021/12/11 02:07:08;;;;;;;0.82;0.30;;;22.10;86.20;;;;;;5003445;28;20126;-73
2021/12/11 02:09:38;;;;;;;2.03;1.00;;;22.20;86.80;;;;;;5004627;28;20073;-76
2021/12/11 02:12:16;;;;;;;1.42;0.43;;;22.30;86.50;;;;;;5000082;28;20060;-73
2021/12/11 02:14:48;;;;;;;2.72;0.57;;;22.70;86.40;;;;;;4998214;28;20026;-70
2021/12/11 02:17:40;;;;;;;2.20;0.50;;;23.00;84.00;;;;;;5002894;28;20026;-68
2021/12/11 02:20:11;;;;;;;0.77;0.47;;;23.00;83.80;;;;;;5002872;28;20121;-72
2021/12/11 02:22:43;;;;;;;1.30;0.50;;;23.00;85.10;;;;;;5002224;28;20489;-69
2021/12/11 02:25:12;;;;;;;;;;;23.00;81.70;;;;;;4999590;28;20030;-72
2021/12/11 02:27:53;;;;;;;2.72;0.73;;;23.10;82.40;;;;;;5003391;28;19924;-71
2021/12/11 02:30:53;;;;;;;1.42;0.38;;;23.10;81.40;;;;;;5001745;28;20052;-72
2021/12/11 02:33:36;;;;;;;2.33;0.50;;;23.10;84.10;;;;;;4981940;28;20035;-70
2021/12/11 02:36:10;;;;;;;;;;;23.20;82.00;;;;;;5006485;28;20026;-73
2021/12/11 02:38:45;;;;;;;1.00;0.32;;;23.20;81.10;;;;;;5002617;28;19961;-73
2021/12/11 02:41:39;;;;;;;1.70;0.40;;;23.20;81.70;;;;;;5003182;28;20022;-73
2021/12/11 02:44:55;;;;;;;2.05;0.50;;;23.50;80.10;;;;;;4999778;28;20064;-72
2021/12/11 02:47:34;;;;;;;3.58;0.50;;;23.60;80.10;;;;;;4999364;28;20518;-72
2021/12/11 02:50:12;;;;;;;1.65;0.40;;;23.60;80.00;;;;;;5004320;28;20014;-75
2021/12/11 02:52:43;;;;;;;2.17;0.70;;;23.50;79.10;;;;;;5010123;28;20385;-75
2021/12/11 02:55:10;;;;;;;1.52;0.73;;;23.40;82.60;;;;;;5005965;28;20022;-74
2021/12/11 02:57:45;;;;;;;1.60;0.63;;;23.60;81.00;;;;;;5002812;28;20018;-75
2021/12/11 03:00:20;;;;;;;1.50;0.65;;;23.70;79.50;;;;;;5005940;28;20393;-70
2021/12/11 03:02:51;;;;;;;2.08;0.75;;;23.50;80.70;;;;;;5005860;28;20037;-71
2021/12/11 03:05:26;;;;;;;1.13;0.50;;;23.50;79.40;;;;;;5003102;28;20613;-71
2021/12/11 03:07:54;;;;;;;2.60;0.40;;;23.50;81.40;;;;;;5001967;28;20026;-72
2021/12/11 03:10:25;;;;;;;0.45;0.30;;;23.50;78.80;;;;;;5005546;28;20033;-71
2021/12/11 03:12:55;;;;;;;2.42;0.63;;;23.30;79.40;;;;;;5002731;28;20018;-72
2021/12/11 03:15:23;;;;;;;2.53;0.70;;;23.20;81.00;;;;;;5003393;28;20058;-71
2021/12/11 03:17:50;;;;;;;2.13;0.47;;;23.20;77.80;;;;;;5003401;28;21142;-72
2021/12/11 03:20:20;;;;;;;0.60;0.50;;;23.20;78.50;;;;;;5003120;28;20073;-70
2021/12/11 03:22:48;;;;;;;1.00;0.40;;;23.00;80.20;;;;;;5004963;28;20026;-73
2021/12/11 03:25:19;;;;;;;0.88;0.60;;;23.00;82.90;;;;;;5004908;28;20022;-74
2021/12/11 03:27:47;;;;;;;1.75;0.40;;;23.30;83.50;;;;;;5003110;28;20037;-72
2021/12/11 03:30:20;;;;;;;0.85;0.40;;;23.40;81.40;;;;;;5006142;28;20109;-76
2021/12/11 03:32:50;;;;;;;1.08;0.45;;;23.40;82.40;;;;;;5006096;28;20494;-71
2021/12/11 03:35:18;;;;;;;1.00;0.50;;;23.40;79.60;;;;;;5001649;28;20401;-69
2021/12/11 03:37:45;;;;;;;9.45;7.47;;;24.10;78.20;;;;;;5001339;28;20064;-73
2021/12/11 03:40:13;;;;;;;11.95;10.20;;;25.30;75.50;;;;;;5006036;28;20030;-75
2021/12/11 03:42:42;;;;;;;26.23;20.35;;;25.60;71.60;;;;;;5006666;28;20036;-72
2021/12/11 03:45:16;;;;;;;22.73;18.48;;;25.40;69.80;;;;;;5005245;28;20045;-76
2021/12/11 03:47:49;;;;;;;4.97;2.30;;;24.80;72.70;;;;;;5004527;28;20053;-74
2021/12/11 03:50:20;;;;;;;2.10;1.70;;;24.70;73.60;;;;;;5003692;28;20026;-72
2021/12/11 03:52:50;;;;;;;39.60;34.63;;;24.60;72.60;;;;;;5004292;28;20022;-73
2021/12/11 03:55:23;;;;;;;5.22;4.07;;;24.60;76.20;;;;;;5006510;28;20113;-74
2021/12/11 03:57:57;;;;;;;1.13;0.60;;;24.60;73.80;;;;;;5005269;28;20026;-67
2021/12/11 04:00:28;;;;;;;0.93;0.77;;;24.40;73.70;;;;;;5004251;28;20094;-77
2021/12/11 04:03:03;;;;;;;2.28;1.00;;;24.50;73.20;;;;;;5001420;28;20053;-74
2021/12/11 04:05:31;;;;;;;1.88;1.23;;;24.20;73.90;;;;;;5005037;28;20103;-75
2021/12/11 04:07:59;;;;;;;1.67;1.25;;;23.80;74.90;;;;;;5004105;28;20030;-73
2021/12/11 04:10:27;;;;;;;1.75;0.75;;;23.30;78.60;;;;;;5004913;28;20029;-71
2021/12/11 04:13:06;;;;;;;1.13;0.52;;;22.90;80.00;;;;;;5008165;28;20702;-71
2021/12/11 04:15:37;;;;;;;2.35;0.30;;;22.60;80.30;;;;;;5003857;28;20030;-69
2021/12/11 04:18:05;;;;;;;2.65;0.70;;;22.40;82.60;;;;;;5005161;28;20033;-70
2021/12/11 04:20:36;;;;;;;2.92;0.77;;;22.50;83.40;;;;;;5004172;28;20033;-75
2021/12/11 04:23:04;;;;;;;1.75;0.80;;;22.50;84.20;;;;;;5002682;28;20030;-74
2021/12/11 04:25:31;;;;;;;0.70;0.40;;;22.60;84.10;;;;;;5003365;28;20512;-72
2021/12/11 04:27:59;;;;;;;1.25;0.55;;;22.60;82.20;;;;;;5003102;28;20026;-74
2021/12/11 04:30:27;;;;;;;1.58;0.40;;;22.60;83.20;;;;;;5003535;28;20117;-76
2021/12/11 04:32:56;;;;;;;0.70;0.50;;;22.70;81.40;;;;;;5003910;28;20052;-74
2021/12/11 04:35:27;;;;;;;2.80;0.60;;;22.60;84.60;;;;;;5004419;28;20041;-72
2021/12/11 04:37:56;;;;;;;1.88;0.70;;;22.70;84.40;;;;;;5006524;28;20062;-71
2021/12/11 04:40:28;;;;;;;1.27;0.55;;;22.90;81.40;;;;;;5004438;28;20030;-70
2021/12/11 04:43:12;;;;;;;1.98;0.60;;;23.00;81.80;;;;;;4995919;28;20379;-69
2021/12/11 04:45:54;;;;;;;0.60;0.55;;;23.10;81.00;;;;;;4976528;28;20049;-75
2021/12/11 04:48:50;;;;;;;2.05;0.45;;;23.00;81.30;;;;;;4976832;28;20026;-73
2021/12/11 04:51:26;;;;;;;1.20;0.55;;;22.80;82.70;;;;;;4975516;28;20103;-71
2021/12/11 04:54:09;;;;;;;0.73;0.40;;;22.60;84.10;;;;;;4975757;28;20018;-71
2021/12/11 05:05:28;;;;;;;2.83;1.13;;;22.10;89.20;;;;;;4978344;28;20048;-71
2021/12/11 05:10:54;;;;;;;7.05;4.95;;;22.50;84.70;;;;;;4977591;28;20507;-73
2021/12/11 05:13:22;;;;;;;0.90;0.50;;;22.60;85.00;;;;;;4986062;28;20409;-71
2021/12/11 05:15:52;;;;;;;0.80;0.40;;;22.60;84.90;;;;;;4974243;28;20034;-70
2021/12/11 05:18:22;;;;;;;1.52;0.60;;;22.70;86.40;;;;;;4295013;28;10021686;-67
2021/12/11 05:20:53;;;;;;;0.75;0.30;;;22.80;86.00;;;;;;4979590;28;20018;-69
2021/12/11 05:23:20;;;;;;;0.35;0.30;;;22.90;85.30;;;;;;4978837;28;20030;-74
2021/12/11 05:25:48;;;;;;;1.10;0.45;;;22.60;87.90;;;;;;4970480;28;20482;-70
2021/12/11 05:28:15;;;;;;;1.45;0.52;;;22.60;89.40;;;;;;4978715;28;20027;-67
2021/12/11 05:30:50;;;;;;;2.03;0.93;;;22.50;91.10;;;;;;4974379;28;20026;-69
2021/12/11 05:33:18;;;;;;;5.40;1.13;;;22.50;91.30;;;;;;4993752;28;20026;-67
2021/12/11 05:35:47;;;;;;;2.38;0.80;;;22.30;91.70;;;;;;4988957;28;20076;-69
2021/12/11 05:38:17;;;;;;;4.97;0.98;;;22.30;92.10;;;;;;4987454;28;20030;-71
2021/12/11 05:40:51;;;;;;;2.38;0.98;;;22.20;93.00;;;;;;4983954;28;20084;-71
2021/12/11 05:43:19;;;;;;;2.15;1.00;;;22.10;92.80;;;;;;4981754;28;20027;-71
2021/12/11 05:45:47;;;;;;;1.42;0.68;;;22.00;91.20;;;;;;5099199;22;20400;-70
2021/12/11 05:48:15;;;;;;;1.25;0.50;;;22.00;90.20;;;;;;5086988;28;20528;-67
2021/12/11 05:50:47;;;;;;;2.45;0.50;;;21.90;90.50;;;;;;5086539;28;20526;-69
2021/12/11 05:53:17;;;;;;;2.83;0.98;;;22.00;89.00;;;;;;5081535;28;20048;-69
2021/12/11 05:55:46;;;;;;;2.10;0.60;;;21.80;90.00;;;;;;5086933;28;20032;-70
2021/12/11 05:58:22;;;;;;;1.08;0.57;;;21.90;89.10;;;;;;5068893;28;20032;-70
2021/12/11 06:00:51;;;;;;;3.58;0.63;;;21.80;89.80;;;;;;5065821;28;20035;-69
2021/12/11 06:03:19;;;;;;;3.67;0.60;;;21.80;88.10;;;;;;5079049;28;20028;-73
2021/12/11 06:05:47;;;;;;;0.77;0.43;;;21.80;91.60;;;;;;5085697;28;20095;-70
2021/12/11 06:08:14;;;;;;;2.17;0.60;;;21.90;90.40;;;;;;5085403;28;20674;-72
2021/12/11 06:10:42;;;;;;;2.08;0.47;;;21.90;90.40;;;;;;5087258;28;20051;-67
2021/12/11 06:13:10;;;;;;;2.03;0.52;;;21.90;90.50;;;;;;5088264;28;20028;-69
2021/12/11 06:15:39;;;;;;;3.45;0.85;;;21.90;89.60;;;;;;5089072;28;20297;-70
2021/12/11 06:18:09;;;;;;;2.03;0.63;;;21.70;90.70;;;;;;5090535;28;20024;-69
2021/12/11 06:20:36;;;;;;;2.50;0.68;;;21.70;90.40;;;;;;5068436;28;20099;-67
2021/12/11 06:23:03;;;;;;;3.20;0.85;;;21.70;90.90;;;;;;5091376;28;20032;-70
2021/12/11 06:25:33;;;;;;;1.83;0.73;;;21.70;90.90;;;;;;5088872;28;20040;-69
2021/12/11 06:28:00;;;;;;;1.08;0.45;;;21.70;91.00;;;;;;5093688;28;20019;-67
2021/12/11 06:30:27;;;;;;;1.33;0.50;;;21.60;92.00;;;;;;5065811;28;20043;-69
2021/12/11 06:32:56;;;;;;;2.47;0.90;;;21.60;92.60;;;;;;5083453;28;20050;-71
2021/12/11 06:35:44;;;;;;;1.90;0.80;;;21.70;92.90;;;;;;5085519;28;20571;-71
2021/12/11 06:38:15;;;;;;;2.83;1.00;;;21.70;93.30;;;;;;5086734;28;20032;-67
2021/12/11 06:40:43;;;;;;;3.67;1.20;;;21.60;94.30;;;;;;5086029;28;20421;-71
2021/12/11 06:43:11;;;;;;;6.25;2.33;;;21.60;95.50;;;;;;5087168;28;20081;-73
2021/12/11 06:45:38;;;;;;;4.50;1.10;;;21.60;95.60;;;;;;5084424;28;20044;-73
2021/12/11 06:48:05;;;;;;;4.80;1.20;;;21.50;95.70;;;;;;5087538;28;20055;-70
2021/12/11 06:50:33;;;;;;;4.00;1.10;;;21.50;95.90;;;;;;5093596;28;20368;-73
2021/12/11 06:53:03;;;;;;;6.63;1.45;;;21.40;95.90;;;;;;5085570;28;20032;-74
2021/12/11 06:55:30;;;;;;;4.32;1.58;;;21.20;96.10;;;;;;5075128;28;20043;-74
2021/12/11 06:57:57;;;;;;;3.72;1.67;;;21.00;96.60;;;;;;5087584;28;20509;-73
2021/12/11 07:00:26;;;;;;;3.60;1.33;;;21.00;96.80;;;;;;5087910;28;20100;-73
2021/12/11 07:02:53;;;;;;;7.30;1.48;;;21.00;97.10;;;;;;5088010;28;20489;-72
2021/12/11 07:05:20;;;;;;;4.05;1.35;;;21.20;97.20;;;;;;5087727;28;20480;-72
2021/12/11 07:07:47;;;;;;;3.53;1.55;;;21.30;97.20;;;;;;5072212;28;20031;-74
2021/12/11 07:10:18;;;;;;;3.00;1.10;;;22.20;95.60;;;;;;5087721;28;20020;-69
2021/12/11 07:12:46;;;;;;;4.88;1.45;;;22.60;94.60;;;;;;5069517;28;20427;-71
2021/12/11 07:15:13;;;;;;;3.47;1.40;;;23.30;93.00;;;;;;5087184;28;20132;-72
2021/12/11 07:17:41;;;;;;;4.40;1.17;;;23.30;92.00;;;;;;5087535;28;20032;-74
2021/12/11 07:20:12;;;;;;;3.42;1.33;;;22.80;92.40;;;;;;5088325;28;20020;-73
2021/12/11 07:22:41;;;;;;;3.38;1.10;;;22.40;93.20;;;;;;5088435;28;20036;-74
2021/12/11 07:25:25;;;;;;;2.88;1.13;;;22.10;93.70;;;;;;5087500;28;20028;-73
2021/12/11 07:27:54;;;;;;;2.63;1.65;;;21.90;94.70;;;;;;5064012;28;20043;-73
2021/12/11 07:30:23;;;;;;;3.97;1.10;;;21.80;94.10;;;;;;5088862;28;20105;-73
2021/12/11 07:32:54;;;;;;;3.95;1.45;;;21.60;94.50;;;;;;5068221;28;20030;-73
2021/12/11 07:35:21;;;;;;;2.40;1.02;;;21.30;95.70;;;;;;5086641;28;20099;-74
2021/12/11 07:37:50;;;;;;;4.63;2.10;;;21.00;97.20;;;;;;5086925;28;20027;-71
2021/12/11 07:40:24;;;;;;;6.30;1.48;;;20.80;97.90;;;;;;5069331;28;20480;-73
2021/12/11 07:42:52;;;;;;;4.03;1.10;;;20.60;98.90;;;;;;5084079;28;20078;-71
2021/12/11 07:45:20;;;;;;;8.40;2.90;;;20.60;98.90;;;;;;5066913;28;20040;-73
2021/12/11 07:47:48;;;;;;;4.95;1.40;;;20.60;99.40;;;;;;5086079;28;20012;-68
2021/12/11 07:50:15;;;;;;;5.05;2.00;;;20.50;98.30;;;;;;5069697;28;20026;-71
2021/12/11 07:52:42;;;;;;;3.75;1.48;;;20.40;98.80;;;;;;5065395;28;20020;-68
2021/12/11 07:55:10;;;;;;;3.97;1.38;;;20.40;99.40;;;;;;5086295;28;20112;-72
2021/12/11 07:57:38;;;;;;;6.03;2.17;;;20.30;99.30;;;;;;5067111;28;20027;-75
2021/12/11 08:00:12;;;;;;;5.05;1.60;;;20.30;99.90;;;;;;5083096;28;20110;-74
2021/12/11 08:02:39;;;;;;;4.57;1.33;;;20.80;99.80;;;;;;5086579;28;20506;-75
2021/12/11 08:05:06;;;;;;;7.32;1.73;;;21.50;98.00;;;;;;4745089;27;9999745;-76
2021/12/11 08:07:34;;;;;;;7.20;2.00;;;21.50;97.80;;;;;;5084366;28;20024;-73
2021/12/11 08:10:01;;;;;;;4.53;2.50;;;21.00;98.80;;;;;;5067338;28;20553;-73
2021/12/11 08:12:28;;;;;;;8.55;2.90;;;20.50;99.90;;;;;;5083291;28;20028;-77
2021/12/11 08:14:55;;;;;;;6.95;1.90;;;20.20;99.90;;;;;;5088603;28;20476;-74
2021/12/11 08:17:23;;;;;;;4.07;2.10;;;20.00;99.90;;;;;;5067266;28;20392;-78
2021/12/11 08:19:50;;;;;;;4.55;1.92;;;20.30;99.90;;;;;;5087714;28;20055;-72
2021/12/11 08:22:17;;;;;;;8.27;2.17;;;20.20;99.90;;;;;;5069323;28;20035;-74
2021/12/11 08:24:44;;;;;;;8.20;2.47;;;19.90;99.90;;;;;;5087449;28;20515;-72
2021/12/11 08:27:19;;;;;;;6.57;2.28;;;19.60;99.90;;;;;;5085381;28;20119;-77
2021/12/11 08:29:49;;;;;;;6.88;2.33;;;19.50;99.90;;;;;;5065407;28;20740;-79
2021/12/11 08:32:16;;;;;;;8.65;2.25;;;19.40;99.90;;;;;;5068935;28;20024;-72
2021/12/11 08:34:43;;;;;;;5.30;2.28;;;19.30;99.90;;;;;;5087778;28;20330;-76
2021/12/11 08:37:13;;;;;;;5.50;1.55;;;19.10;99.90;;;;;;5085496;28;20028;-74
2021/12/11 08:39:43;;;;;;;5.20;1.75;;;19.10;99.90;;;;;;5087829;28;20549;-74
2021/12/11 08:42:15;;;;;;;3.03;1.17;;;19.00;99.90;;;;;;5063939;28;20020;-72
2021/12/11 08:44:50;;;;;;;8.20;1.30;;;18.90;99.90;;;;;;5083540;28;20039;-74
2021/12/11 08:47:20;;;;;;;4.30;1.35;;;18.80;99.90;;;;;;5084111;28;20108;-78
2021/12/11 08:49:49;;;;;;;2.70;1.10;;;18.60;99.90;;;;;;5060493;28;20065;-72
2021/12/11 08:52:24;;;;;;;4.45;1.40;;;18.50;99.90;;;;;;5061616;28;20035;-72
2021/12/11 08:54:52;;;;;;;5.18;1.42;;;18.50;99.90;;;;;;5060087;28;20082;-74
2021/12/11 08:57:24;;;;;;;6.65;1.55;;;18.40;99.90;;;;;;5084663;28;20031;-76
2021/12/11 08:59:55;;;;;;;3.85;1.13;;;18.30;99.90;;;;;;5084846;28;20123;-72
2021/12/11 09:02:33;;;;;;;1.77;0.90;;;18.20;99.90;;;;;;5069798;28;20048;-77
2021/12/11 09:05:14;;;;;;;1.58;0.93;;;18.20;99.90;;;;;;5062129;28;20148;-75
2021/12/11 09:07:50;;;;;;;2.78;1.13;;;18.10;99.90;;;;;;5084049;28;20070;-73
2021/12/11 09:10:29;;;;;;;2.80;1.20;;;18.10;99.90;;;;;;5059703;28;20320;-75
2021/12/11 09:13:02;;;;;;;1.73;1.02;;;18.00;99.90;;;;;;5077563;28;20085;-75
2021/12/11 09:15:44;;;;;;;3.47;1.20;;;18.10;99.90;;;;;;5093330;28;20111;-73
2021/12/11 09:18:17;;;;;;;2.87;1.20;;;18.00;99.90;;;;;;5081823;28;20028;-74
2021/12/11 09:21:28;;;;;;;3.40;1.10;;;17.80;99.90;;;;;;5082086;28;20811;-74
2021/12/11 09:24:04;;;;;;;2.47;1.38;;;17.80;99.90;;;;;;5079554;28;20161;-73
2021/12/11 09:26:38;;;;;;;4.95;2.03;;;17.70;99.90;;;;;;5064869;28;20060;-75
2021/12/11 09:29:17;;;;;;;2.95;1.27;;;17.70;99.90;;;;;;5091052;28;20016;-73
2021/12/11 09:32:13;;;;;;;6.43;2.10;;;17.50;99.90;;;;;;5076484;28;20034;-72
2021/12/11 09:34:45;;;;;;;6.07;2.30;;;17.40;99.90;;;;;;5079347;28;20040;-75
2021/12/11 09:37:14;;;;;;;4.35;1.75;;;17.40;99.90;;;;;;5063486;28;20073;-73
2021/12/11 09:39:48;;;;;;;4.57;1.60;;;17.30;99.90;;;;;;5080811;28;20036;-75
2021/12/11 09:42:14;;;;;;;6.38;2.60;;;17.20;99.90;;;;;;5084696;28;20028;-74
2021/12/11 09:44:56;;;;;;;4.47;1.50;;;17.20;99.90;;;;;;5084210;28;20666;-77
2021/12/11 09:47:34;;;;;;;2.63;1.10;;;17.10;99.90;;;;;;5074623;28;20445;-76
2021/12/11 09:50:09;;;;;;;3.45;1.20;;;17.00;99.90;;;;;;5083308;28;20081;-75
2021/12/11 09:52:38;;;;;;;5.20;1.45;;;17.00;99.90;;;;;;5069697;28;20480;-74
2021/12/11 09:55:14;;;;;;;1.70;0.77;;;17.00;99.90;;;;;;5091825;28;20082;-75
2021/12/11 09:57:46;;;;;;;2.83;0.80;;;16.90;99.90;;;;;;5064692;28;20035;-75
2021/12/11 10:00:43;;;;;;;3.30;1.50;;;16.90;99.90;;;;;;5090839;28;20052;-75
2021/12/11 10:03:16;;;;;;;1.95;1.08;;;16.90;99.90;;;;;;5084333;28;20063;-71
2021/12/11 10:05:56;;;;;;;3.63;1.60;;;17.00;99.90;;;;;;5086829;28;20031;-76
2021/12/11 10:08:33;;;;;;;5.55;1.77;;;16.90;99.90;;;;;;5091233;28;20062;-72
2021/12/11 10:11:05;;;;;;;5.38;1.55;;;17.00;99.90;;;;;;5084656;28;20024;-74
2021/12/11 10:13:33;;;;;;;;;;;17.00;99.90;;;;;;5064079;28;20598;-75
2021/12/11 10:16:00;;;;;;;3.45;0.70;;;16.90;99.90;;;;;;5087463;28;20026;-73
2021/12/11 10:18:29;;;;;;;2.13;1.00;;;16.90;99.90;;;;;;5087927;28;20045;-78
2021/12/11 10:21:02;;;;;;;4.72;1.55;;;16.90;99.90;;;;;;5089712;28;20028;-77
2021/12/11 10:23:33;;;;;;;2.88;0.93;;;16.90;99.90;;;;;;5066091;28;20034;-77
2021/12/11 10:26:03;;;;;;;3.17;0.82;;;16.90;99.90;;;;;;5085113;28;20024;-74
2021/12/11 10:28:32;;;;;;;4.13;1.17;;;16.90;99.90;;;;;;5087199;28;20825;-76
2021/12/11 10:31:08;;;;;;;3.03;0.90;;;16.80;99.90;;;;;;5066774;28;20640;-75
2021/12/11 10:33:37;;;;;;;4.72;1.63;;;16.80;99.90;;;;;;5065689;28;20032;-74
2021/12/11 10:36:09;;;;;;;7.53;1.60;;;16.90;99.90;;;;;;5084344;28;20023;-75
2021/12/11 10:38:37;;;;;;;3.43;1.17;;;16.80;99.90;;;;;;5088151;28;20182;-72
2021/12/11 10:41:07;;;;;;;4.32;1.00;;;16.90;99.90;;;;;;5088166;28;20121;-75
2021/12/11 10:43:52;;;;;;;1.90;0.93;;;16.90;99.90;;;;;;5067466;28;20432;-75
2021/12/11 10:46:21;;;;;;;4.32;0.88;;;16.90;99.90;;;;;;5085251;28;20379;-73
2021/12/11 10:48:48;;;;;;;2.53;0.70;;;16.90;99.90;;;;;;5085248;28;20111;-70
2021/12/11 10:51:29;;;;;;;1.90;1.27;;;16.90;99.90;;;;;;5083787;28;20028;-69
2021/12/11 10:53:57;;;;;;;2.03;0.85;;;16.80;99.90;;;;;;5082805;28;20226;-72
2021/12/11 10:56:26;;;;;;;3.00;1.30;;;16.70;99.90;;;;;;5063697;28;20067;-72
2021/12/11 10:59:00;;;;;;;4.00;1.10;;;16.70;99.90;;;;;;5068535;28;20036;-69
2021/12/11 11:01:30;;;;;;;4.47;1.25;;;16.60;99.90;;;;;;5086019;28;20586;-74
2021/12/11 11:04:10;;;;;;;3.47;1.02;;;16.60;99.90;;;;;;5071169;28;20031;-68
2021/12/11 11:06:37;;;;;;;3.70;1.00;;;16.60;99.90;;;;;;5083227;28;20067;-70
2021/12/11 11:09:07;;;;;;;2.03;0.73;;;16.60;99.90;;;;;;5085985;28;20051;-69
2021/12/11 11:11:39;;;;;;;3.00;1.25;;;16.60;99.90;;;;;;5086729;28;20012;-67
2021/12/11 11:14:08;;;;;;;3.88;1.10;;;16.60;99.90;;;;;;5089709;28;20054;-71
2021/12/11 11:16:36;;;;;;;4.47;1.10;;;16.70;99.90;;;;;;5088314;28;20451;-72
2021/12/11 11:19:04;;;;;;;1.90;0.75;;;16.60;99.90;;;;;;5069876;28;20028;-75
2021/12/11 11:21:36;;;;;;;2.00;0.85;;;16.60;99.90;;;;;;5069368;28;20028;-70
2021/12/11 11:24:05;;;;;;;4.43;1.00;;;16.70;99.90;;;;;;5087926;28;20023;-72
2021/12/11 11:26:37;;;;;;;4.28;1.05;;;16.60;99.90;;;;;;5085786;28;20030;-72
2021/12/11 11:29:16;;;;;;;5.47;1.15;;;16.70;99.90;;;;;;5083051;28;20066;-74
2021/12/11 11:31:46;;;;;;;4.50;1.05;;;16.60;99.90;;;;;;5087591;28;20032;-70
2021/12/11 11:34:16;;;;;;;3.85;1.02;;;16.50;99.90;;;;;;5072049;28;20019;-68
2021/12/11 11:36:44;;;;;;;5.63;1.23;;;16.50;99.90;;;;;;5090011;28;20027;-74
2021/12/11 11:39:13;;;;;;;4.05;1.23;;;16.50;99.90;;;;;;5091102;28;20051;-74
2021/12/11 11:41:46;;;;;;;3.75;1.45;;;16.40;99.90;;;;;;5110578;27;20035;-74
2021/12/11 11:44:14;;;;;;;3.33;0.88;;;16.50;99.90;;;;;;5091079;28;20050;-69
2021/12/11 11:46:42;;;;;;;5.35;1.15;;;16.40;99.90;;;;;;5069876;28;20115;-69
2021/12/11 11:49:12;;;;;;;3.90;1.30;;;16.30;99.90;;;;;;5088124;28;20479;-74
2021/12/11 11:51:49;;;;;;;4.43;1.05;;;16.30;99.90;;;;;;5088102;28;20028;-72
2021/12/11 11:54:19;;;;;;;3.65;1.00;;;16.20;99.90;;;;;;5090426;28;20020;-75
2021/12/11 11:56:53;;;;;;;4.80;1.00;;;16.20;99.90;;;;;;5090797;28;20028;-69
2021/12/11 11:59:20;;;;;;;5.38;0.90;;;16.20;99.90;;;;;;5074486;28;20028;-69
2021/12/11 12:01:58;;;;;;;1.60;0.90;;;16.10;99.90;;;;;;5070187;28;20028;-70
2021/12/11 12:04:25;;;;;;;3.60;1.13;;;16.00;99.90;;;;;;5095828;28;20069;-69
2021/12/11 12:06:56;;;;;;;2.03;0.85;;;16.00;99.90;;;;;;5089178;28;20536;-73
2021/12/11 12:09:24;;;;;;;2.65;0.88;;;15.90;99.90;;;;;;5088767;28;20023;-74
2021/12/11 12:11:53;;;;;;;4.07;1.00;;;15.80;99.90;;;;;;5069994;28;20024;-72
2021/12/11 12:14:25;;;;;;;4.20;1.20;;;15.80;99.90;;;;;;5070041;28;20073;-71
2021/12/11 12:16:53;;;;;;;2.83;1.00;;;15.70;99.90;;;;;;5088129;28;20023;-75
2021/12/11 12:19:23;;;;;;;3.95;1.30;;;15.50;99.90;;;;;;5087477;28;20055;-76
2021/12/11 12:21:55;;;;;;;3.78;1.27;;;15.40;99.90;;;;;;5070043;28;20100;-74
2021/12/11 12:24:25;;;;;;;5.88;0.98;;;15.30;99.90;;;;;;5087968;28;20101;-71
2021/12/11 12:26:53;;;;;;;4.82;1.10;;;15.20;99.90;;;;;;5069681;28;20035;-70
2021/12/11 12:29:21;;;;;;;4.50;1.20;;;15.30;99.90;;;;;;5069441;28;20719;-72
2021/12/11 12:31:58;;;;;;;5.88;1.30;;;15.30;99.90;;;;;;5087841;28;20099;-75
2021/12/11 12:34:32;;;;;;;4.65;1.10;;;15.20;99.90;;;;;;5088763;28;20028;-76
2021/12/11 12:37:00;;;;;;;2.17;1.25;;;15.20;99.90;;;;;;5088461;28;20024;-73
2021/12/11 12:39:37;;;;;;;5.03;1.40;;;15.20;99.90;;;;;;5069049;28;20024;-74
2021/12/11 12:42:34;;;;;;;2.97;1.20;;;15.20;99.90;;;;;;5088045;28;20020;-74
2021/12/11 12:45:26;;;;;;;4.80;1.63;;;15.10;99.90;;;;;;5088094;28;20130;-70
2021/12/11 12:48:03;;;;;;;5.18;1.20;;;15.00;99.90;;;;;;5088405;28;20077;-73
2021/12/11 12:50:41;;;;;;;6.72;1.20;;;14.90;99.90;;;;;;5088413;28;20028;-73
2021/12/11 12:53:10;;;;;;;4.07;1.58;;;14.80;99.90;;;;;;5085796;28;20028;-74
2021/12/11 12:55:49;;;;;;;8.98;3.45;;;14.70;99.90;;;;;;5086885;28;20035;-70
2021/12/11 12:58:21;;;;;;;4.20;1.80;;;14.60;99.90;;;;;;5087302;28;20020;-74
2021/12/11 13:00:55;;;;;;;4.55;1.10;;;14.50;99.90;;;;;;5087819;28;20670;-68
2021/12/11 13:03:27;;;;;;;3.17;1.00;;;14.40;99.90;;;;;;5087814;28;20281;-74
2021/12/11 13:05:58;;;;;;;5.72;1.50;;;14.40;99.90;;;;;;5087264;28;20028;-73
2021/12/11 13:08:33;;;;;;;2.55;1.13;;;14.40;99.90;;;;;;5069456;28;20062;-74
2021/12/11 13:11:25;;;;;;;2.20;1.40;;;14.40;99.90;;;;;;5087304;28;20020;-73
2021/12/11 13:13:54;;;;;;;3.30;1.30;;;14.40;99.90;;;;;;5082023;28;20487;-74
2021/12/11 13:16:35;;;;;;;3.20;1.30;;;14.40;99.90;;;;;;5087262;28;20028;-74
2021/12/11 13:19:09;;;;;;;2.33;1.00;;;14.20;99.90;;;;;;5080899;28;20034;-74
2021/12/11 13:21:43;;;;;;;2.47;1.33;;;14.20;99.90;;;;;;5094856;28;20042;-68
2021/12/11 13:24:15;;;;;;;5.82;1.50;;;14.20;99.90;;;;;;5069589;28;20028;-68
2021/12/11 13:26:45;;;;;;;6.03;1.20;;;14.10;99.90;;;;;;5087923;28;20032;-74
2021/12/11 13:29:19;;;;;;;2.90;1.38;;;14.20;99.90;;;;;;5087648;28;20012;-70
2021/12/11 13:31:50;;;;;;;2.80;1.17;;;14.10;99.90;;;;;;5087671;28;20024;-68